Terminal Aerodrome Forecast
Issued by NWS Wilmington, OH

Current Version | Previous Version | Graphics & Text | Print | Product List | Glossary On
Versions: 1 2 3 4 5 6 7 8 9 10 11 12 13 14 15 16 17 18 19 20 21
000
FTUS41 KILN 182300 RRA
TAFILN
TAF
KILN 182343Z 1900/1924 07009KT P6SM SCT090 OVC200
     FM191000 09012KT P6SM FEW050 OVC100
     FM191300 10012G20KT P6SM -SHRA OVC040
     FM191600 12016G26KT 5SM -SHRA OVC028
     FM192200 17017G27KT 4SM -SHRA BR OVC025=

USA.gov is the U.S. government's official web portal to all federal, state and local government web resources and services.